sensor_id;sensor_type;location;lat;lon;timestamp;temperature;humidity
47813;DHT22;34221;45.296;9.516;2024-03-08T00:00:13;9.50;99.90
47813;DHT22;34221;45.296;9.516;2024-03-08T00:00:28;9.50;99.90
47813;DHT22;34221;45.296;9.516;2024-03-08T00:00:42;9.50;99.90
47813;DHT22;34221;45.296;9.516;2024-03-08T00:00:57;9.50;99.90
47813;DHT22;34221;45.296;9.516;2024-03-08T00:01:12;9.50;99.90
47813;DHT22;34221;45.296;9.516;2024-03-08T00:01:27;9.50;99.90
47813;DHT22;34221;45.296;9.516;2024-03-08T00:01:41;9.50;99.90
47813;DHT22;34221;45.296;9.516;2024-03-08T00:01:58;9.50;99.90
47813;DHT22;34221;45.296;9.516;2024-03-08T00:02:13;9.50;99.90
47813;DHT22;34221;45.296;9.516;2024-03-08T00:02:27;9.50;99.90
47813;DHT22;34221;45.296;9.516;2024-03-08T00:02:44;9.50;99.90
47813;DHT22;34221;45.296;9.516;2024-03-08T00:02:59;9.50;99.90
47813;DHT22;34221;45.296;9.516;2024-03-08T00:03:15;9.50;99.90
47813;DHT22;34221;45.296;9.516;2024-03-08T00:03:30;9.50;99.90
47813;DHT22;34221;45.296;9.516;2024-03-08T00:03:45;9.50;99.90
47813;DHT22;34221;45.296;9.516;2024-03-08T00:04:00;9.50;99.90
47813;DHT22;34221;45.296;9.516;2024-03-08T00:04:15;9.50;99.90
47813;DHT22;34221;45.296;9.516;2024-03-08T00:04:30;9.50;99.90
47813;DHT22;34221;45.296;9.516;2024-03-08T00:04:44;9.60;99.90
47813;DHT22;34221;45.296;9.516;2024-03-08T00:04:59;9.50;99.90
47813;DHT22;34221;45.296;9.516;2024-03-08T00:05:14;9.50;99.90
47813;DHT22;34221;45.296;9.516;2024-03-08T00:05:29;9.50;99.90
47813;DHT22;34221;45.296;9.516;2024-03-08T00:05:44;9.60;99.90
47813;DHT22;34221;45.296;9.516;2024-03-08T00:05:59;9.60;99.90
47813;DHT22;34221;45.296;9.516;2024-03-08T00:06:13;9.60;99.90
47813;DHT22;34221;45.296;9.516;2024-03-08T00:06:28;9.60;99.90
47813;DHT22;34221;45.296;9.516;2024-03-08T00:06:43;9.60;99.90
47813;DHT22;34221;45.296;9.516;2024-03-08T00:07:00;9.60;99.90
47813;DHT22;34221;45.296;9.516;2024-03-08T00:07:15;9.50;99.90
47813;DHT22;34221;45.296;9.516;2024-03-08T00:07:29;9.60;99.90
47813;DHT22;34221;45.296;9.516;2024-03-08T00:07:44;9.60;99.90
47813;DHT22;34221;45.296;9.516;2024-03-08T00:07:59;9.50;99.90
47813;DHT22;34221;45.296;9.516;2024-03-08T00:08:14;9.60;99.90
47813;DHT22;34221;45.296;9.516;2024-03-08T00:08:29;9.50;99.90
47813;DHT22;34221;45.296;9.516;2024-03-08T00:08:45;9.50;99.90
47813;DHT22;34221;45.296;9.516;2024-03-08T00:09:00;9.50;99.90
47813;DHT22;34221;45.296;9.516;2024-03-08T00:09:14;9.60;99.90
47813;DHT22;34221;45.296;9.516;2024-03-08T00:09:30;9.60;99.90
47813;DHT22;34221;45.296;9.516;2024-03-08T00:09:45;9.50;99.90
47813;DHT22;34221;45.296;9.516;2024-03-08T00:10:00;9.60;99.90
47813;DHT22;34221;45.296;9.516;2024-03-08T00:10:14;9.60;99.90
47813;DHT22;34221;45.296;9.516;2024-03-08T00:10:29;9.60;99.90
47813;DHT22;34221;45.296;9.516;2024-03-08T00:10:44;9.60;99.90
47813;DHT22;34221;45.296;9.516;2024-03-08T00:10:59;9.50;99.90
47813;DHT22;34221;45.296;9.516;2024-03-08T00:11:13;9.50;99.90
47813;DHT22;34221;45.296;9.516;2024-03-08T00:11:28;9.50;99.90
47813;DHT22;34221;45.296;9.516;2024-03-08T00:11:43;9.50;99.90
47813;DHT22;34221;45.296;9.516;2024-03-08T00:11:58;9.50;99.90
47813;DHT22;34221;45.296;9.516;2024-03-08T00:12:12;9.50;99.90
47813;DHT22;34221;45.296;9.516;2024-03-08T00:12:27;9.50;99.90
47813;DHT22;34221;45.296;9.516;2024-03-08T00:12:44;9.50;99.90
47813;DHT22;34221;45.296;9.516;2024-03-08T00:12:59;9.50;99.90
47813;DHT22;34221;45.296;9.516;2024-03-08T00:13:14;9.50;99.90
47813;DHT22;34221;45.296;9.516;2024-03-08T00:13:28;9.50;99.90
47813;DHT22;34221;45.296;9.516;2024-03-08T00:13:43;9.50;99.90
47813;DHT22;34221;45.296;9.516;2024-03-08T00:13:59;9.50;99.90
47813;DHT22;34221;45.296;9.516;2024-03-08T00:14:14;9.50;99.90
47813;DHT22;34221;45.296;9.516;2024-03-08T00:14:28;9.50;99.90
47813;DHT22;34221;45.296;9.516;2024-03-08T00:14:43;9.50;99.90
47813;DHT22;34221;45.296;9.516;2024-03-08T00:14:59;9.50;99.90
47813;DHT22;34221;45.296;9.516;2024-03-08T00:15:16;9.50;99.90
47813;DHT22;34221;45.296;9.516;2024-03-08T00:15:31;9.50;99.90
47813;DHT22;34221;45.296;9.516;2024-03-08T00:15:47;9.50;99.90
47813;DHT22;34221;45.296;9.516;2024-03-08T00:16:01;9.50;99.90
47813;DHT22;34221;45.296;9.516;2024-03-08T00:16:16;9.50;99.90
47813;DHT22;34221;45.296;9.516;2024-03-08T00:16:33;9.50;99.90
47813;DHT22;34221;45.296;9.516;2024-03-08T00:16:49;9.50;99.90
47813;DHT22;34221;45.296;9.516;2024-03-08T00:17:04;9.50;99.90
47813;DHT22;34221;45.296;9.516;2024-03-08T00:17:19;9.50;99.90
47813;DHT22;34221;45.296;9.516;2024-03-08T00:17:34;9.50;99.90
47813;DHT22;34221;45.296;9.516;2024-03-08T00:17:49;9.50;99.90
47813;DHT22;34221;45.296;9.516;2024-03-08T00:18:04;9.50;99.90
47813;DHT22;34221;45.296;9.516;2024-03-08T00:18:18;9.50;99.90
47813;DHT22;34221;45.296;9.516;2024-03-08T00:18:33;9.50;99.90
47813;DHT22;34221;45.296;9.516;2024-03-08T00:18:48;9.50;99.90
47813;DHT22;34221;45.296;9.516;2024-03-08T00:19:03;9.50;99.90
47813;DHT22;34221;45.296;9.516;2024-03-08T00:19:18;9.50;99.90
47813;DHT22;34221;45.296;9.516;2024-03-08T00:19:33;9.50;99.90
47813;DHT22;34221;45.296;9.516;2024-03-08T00:19:49;9.50;99.90
47813;DHT22;34221;45.296;9.516;2024-03-08T00:20:04;9.50;99.90
47813;DHT22;34221;45.296;9.516;2024-03-08T00:20:23;9.50;99.90
47813;DHT22;34221;45.296;9.516;2024-03-08T00:20:38;9.50;99.90
47813;DHT22;34221;45.296;9.516;2024-03-08T00:20:53;9.50;99.90
47813;DHT22;34221;45.296;9.516;2024-03-08T00:21:08;9.50;99.90
47813;DHT22;34221;45.296;9.516;2024-03-08T00:21:23;9.50;99.90
47813;DHT22;34221;45.296;9.516;2024-03-08T00:21:38;9.50;99.90
47813;DHT22;34221;45.296;9.516;2024-03-08T00:21:53;9.50;99.90
47813;DHT22;34221;45.296;9.516;2024-03-08T00:22:09;9.50;99.90
47813;DHT22;34221;45.296;9.516;2024-03-08T00:22:26;9.50;99.90
47813;DHT22;34221;45.296;9.516;2024-03-08T00:22:41;9.40;99.90
47813;DHT22;34221;45.296;9.516;2024-03-08T00:22:55;9.50;99.90
47813;DHT22;34221;45.296;9.516;2024-03-08T00:23:12;9.50;99.90
47813;DHT22;34221;45.296;9.516;2024-03-08T00:23:27;9.50;99.90
47813;DHT22;34221;45.296;9.516;2024-03-08T00:23:42;9.50;99.90
47813;DHT22;34221;45.296;9.516;2024-03-08T00:23:57;9.50;99.90
47813;DHT22;34221;45.296;9.516;2024-03-08T00:24:12;9.50;99.90
47813;DHT22;34221;45.296;9.516;2024-03-08T00:24:27;9.50;99.90
47813;DHT22;34221;45.296;9.516;2024-03-08T00:24:43;9.50;99.90
47813;DHT22;34221;45.296;9.516;2024-03-08T00:24:58;9.50;99.90
47813;DHT22;34221;45.296;9.516;2024-03-08T00:25:13;9.50;99.90
47813;DHT22;34221;45.296;9.516;2024-03-08T00:25:27;9.50;99.90
47813;DHT22;34221;45.296;9.516;2024-03-08T00:25:42;9.50;99.90
47813;DHT22;34221;45.296;9.516;2024-03-08T00:25:57;9.40;99.90
47813;DHT22;34221;45.296;9.516;2024-03-08T00:26:12;9.40;99.90
47813;DHT22;34221;45.296;9.516;2024-03-08T00:26:26;9.50;99.90
47813;DHT22;34221;45.296;9.516;2024-03-08T00:26:41;9.40;99.90
47813;DHT22;34221;45.296;9.516;2024-03-08T00:26:56;9.40;99.90
47813;DHT22;34221;45.296;9.516;2024-03-08T00:27:11;9.40;99.90
47813;DHT22;34221;45.296;9.516;2024-03-08T00:27:26;9.40;99.90
47813;DHT22;34221;45.296;9.516;2024-03-08T00:27:41;9.40;99.90
47813;DHT22;34221;45.296;9.516;2024-03-08T00:27:55;9.40;99.90
47813;DHT22;34221;45.296;9.516;2024-03-08T00:28:10;9.50;99.90
47813;DHT22;34221;45.296;9.516;2024-03-08T00:28:28;9.50;99.90
47813;DHT22;34221;45.296;9.516;2024-03-08T00:28:42;9.40;99.90
47813;DHT22;34221;45.296;9.516;2024-03-08T00:28:57;9.40;99.90
47813;DHT22;34221;45.296;9.516;2024-03-08T00:29:12;9.40;99.90
47813;DHT22;34221;45.296;9.516;2024-03-08T00:29:27;9.40;99.90
47813;DHT22;34221;45.296;9.516;2024-03-08T00:29:42;9.40;99.90
47813;DHT22;34221;45.296;9.516;2024-03-08T00:30:00;9.40;99.90
47813;DHT22;34221;45.296;9.516;2024-03-08T00:30:15;9.40;99.90
47813;DHT22;34221;45.296;9.516;2024-03-08T00:30:30;9.40;99.90
47813;DHT22;34221;45.296;9.516;2024-03-08T00:30:45;9.40;99.90
47813;DHT22;34221;45.296;9.516;2024-03-08T00:31:01;9.40;99.90
47813;DHT22;34221;45.296;9.516;2024-03-08T00:31:15;9.40;99.90
47813;DHT22;34221;45.296;9.516;2024-03-08T00:31:31;9.40;99.90
47813;DHT22;34221;45.296;9.516;2024-03-08T00:31:46;9.40;99.90
47813;DHT22;34221;45.296;9.516;2024-03-08T00:32:01;9.40;99.90
47813;DHT22;34221;45.296;9.516;2024-03-08T00:32:15;9.40;99.90
47813;DHT22;34221;45.296;9.516;2024-03-08T00:32:31;9.50;99.90
47813;DHT22;34221;45.296;9.516;2024-03-08T00:32:46;9.40;99.90
47813;DHT22;34221;45.296;9.516;2024-03-08T00:33:01;9.50;99.90
47813;DHT22;34221;45.296;9.516;2024-03-08T00:33:16;9.50;99.90
47813;DHT22;34221;45.296;9.516;2024-03-08T00:33:30;9.50;99.90
47813;DHT22;34221;45.296;9.516;2024-03-08T00:33:45;9.50;99.90
47813;DHT22;34221;45.296;9.516;2024-03-08T00:34:00;9.50;99.90
47813;DHT22;34221;45.296;9.516;2024-03-08T00:34:15;9.50;99.90
47813;DHT22;34221;45.296;9.516;2024-03-08T00:34:30;9.50;99.90
47813;DHT22;34221;45.296;9.516;2024-03-08T00:34:46;9.50;99.90
47813;DHT22;34221;45.296;9.516;2024-03-08T00:35:01;9.50;99.90
47813;DHT22;34221;45.296;9.516;2024-03-08T00:35:16;9.50;99.90
47813;DHT22;34221;45.296;9.516;2024-03-08T00:35:31;9.50;99.90
47813;DHT22;34221;45.296;9.516;2024-03-08T00:35:45;9.50;99.90
47813;DHT22;34221;45.296;9.516;2024-03-08T00:36:00;9.50;99.90
47813;DHT22;34221;45.296;9.516;2024-03-08T00:36:15;9.50;99.90
47813;DHT22;34221;45.296;9.516;2024-03-08T00:36:30;9.50;99.90
47813;DHT22;34221;45.296;9.516;2024-03-08T00:36:44;9.50;99.90
47813;DHT22;34221;45.296;9.516;2024-03-08T00:36:59;9.50;99.90
47813;DHT22;34221;45.296;9.516;2024-03-08T00:37:14;9.60;99.90
47813;DHT22;34221;45.296;9.516;2024-03-08T00:37:29;9.50;99.90
47813;DHT22;34221;45.296;9.516;2024-03-08T00:37:44;9.50;99.90
47813;DHT22;34221;45.296;9.516;2024-03-08T00:38:19;9.50;99.90
47813;DHT22;34221;45.296;9.516;2024-03-08T00:38:34;9.50;99.90
47813;DHT22;34221;45.296;9.516;2024-03-08T00:38:49;9.50;99.90
47813;DHT22;34221;45.296;9.516;2024-03-08T00:39:03;9.50;99.90
47813;DHT22;34221;45.296;9.516;2024-03-08T00:39:21;9.50;99.90
47813;DHT22;34221;45.296;9.516;2024-03-08T00:39:35;9.50;99.90
47813;DHT22;34221;45.296;9.516;2024-03-08T00:39:51;9.50;99.90
47813;DHT22;34221;45.296;9.516;2024-03-08T00:40:06;9.50;99.90
47813;DHT22;34221;45.296;9.516;2024-03-08T00:40:23;9.50;99.90
47813;DHT22;34221;45.296;9.516;2024-03-08T00:40:38;9.50;99.90
47813;DHT22;34221;45.296;9.516;2024-03-08T00:40:53;9.60;99.90
47813;DHT22;34221;45.296;9.516;2024-03-08T00:41:07;9.60;99.90
47813;DHT22;34221;45.296;9.516;2024-03-08T00:41:22;9.60;99.90
47813;DHT22;34221;45.296;9.516;2024-03-08T00:41:37;9.60;99.90
47813;DHT22;34221;45.296;9.516;2024-03-08T00:41:52;9.60;99.90
47813;DHT22;34221;45.296;9.516;2024-03-08T00:42:06;9.60;99.90
47813;DHT22;34221;45.296;9.516;2024-03-08T00:42:21;9.60;99.90
47813;DHT22;34221;45.296;9.516;2024-03-08T00:42:36;9.60;99.90
47813;DHT22;34221;45.296;9.516;2024-03-08T00:42:52;9.60;99.90
47813;DHT22;34221;45.296;9.516;2024-03-08T00:43:07;9.60;99.90
47813;DHT22;34221;45.296;9.516;2024-03-08T00:43:23;9.60;99.90
47813;DHT22;34221;45.296;9.516;2024-03-08T00:43:37;9.60;99.90
47813;DHT22;34221;45.296;9.516;2024-03-08T00:43:52;9.50;99.90
47813;DHT22;34221;45.296;9.516;2024-03-08T00:44:07;9.50;99.90
47813;DHT22;34221;45.296;9.516;2024-03-08T00:44:21;9.50;99.90
47813;DHT22;34221;45.296;9.516;2024-03-08T00:44:36;9.50;99.90
47813;DHT22;34221;45.296;9.516;2024-03-08T00:44:52;9.50;99.90
47813;DHT22;34221;45.296;9.516;2024-03-08T00:45:07;9.50;99.90
47813;DHT22;34221;45.296;9.516;2024-03-08T00:45:22;9.50;99.90
47813;DHT22;34221;45.296;9.516;2024-03-08T00:45:38;9.50;99.90
47813;DHT22;34221;45.296;9.516;2024-03-08T00:45:52;9.50;99.90
47813;DHT22;34221;45.296;9.516;2024-03-08T00:46:07;9.50;99.90
47813;DHT22;34221;45.296;9.516;2024-03-08T00:46:22;9.50;99.90
47813;DHT22;34221;45.296;9.516;2024-03-08T00:46:37;9.50;99.90
47813;DHT22;34221;45.296;9.516;2024-03-08T00:46:52;9.50;99.90
47813;DHT22;34221;45.296;9.516;2024-03-08T00:47:07;9.50;99.90
47813;DHT22;34221;45.296;9.516;2024-03-08T00:47:22;9.50;99.90
47813;DHT22;34221;45.296;9.516;2024-03-08T00:47:36;9.50;99.90
47813;DHT22;34221;45.296;9.516;2024-03-08T00:47:51;9.50;99.90
47813;DHT22;34221;45.296;9.516;2024-03-08T00:48:06;9.50;99.90
47813;DHT22;34221;45.296;9.516;2024-03-08T00:48:21;9.50;99.90
47813;DHT22;34221;45.296;9.516;2024-03-08T00:48:36;9.50;99.90
47813;DHT22;34221;45.296;9.516;2024-03-08T00:48:52;9.50;99.90
47813;DHT22;34221;45.296;9.516;2024-03-08T00:49:07;9.40;99.90
47813;DHT22;34221;45.296;9.516;2024-03-08T00:49:21;9.50;99.90
47813;DHT22;34221;45.296;9.516;2024-03-08T00:49:37;9.50;99.90
47813;DHT22;34221;45.296;9.516;2024-03-08T00:49:52;9.50;99.90
47813;DHT22;34221;45.296;9.516;2024-03-08T00:50:07;9.50;99.90
47813;DHT22;34221;45.296;9.516;2024-03-08T00:50:22;9.50;99.90
47813;DHT22;34221;45.296;9.516;2024-03-08T00:50:37;9.50;99.90
47813;DHT22;34221;45.296;9.516;2024-03-08T00:50:52;9.50;99.90
47813;DHT22;34221;45.296;9.516;2024-03-08T00:51:07;9.50;99.90
47813;DHT22;34221;45.296;9.516;2024-03-08T00:51:21;9.50;99.90
47813;DHT22;34221;45.296;9.516;2024-03-08T00:51:36;9.50;99.90
47813;DHT22;34221;45.296;9.516;2024-03-08T00:51:51;9.50;99.90
47813;DHT22;34221;45.296;9.516;2024-03-08T00:52:06;9.50;99.90
47813;DHT22;34221;45.296;9.516;2024-03-08T00:52:21;9.50;99.90
47813;DHT22;34221;45.296;9.516;2024-03-08T00:52:38;9.50;99.90
47813;DHT22;34221;45.296;9.516;2024-03-08T00:52:53;9.50;99.90
47813;DHT22;34221;45.296;9.516;2024-03-08T00:53:08;9.50;99.90
47813;DHT22;34221;45.296;9.516;2024-03-08T00:53:22;9.50;99.90
47813;DHT22;34221;45.296;9.516;2024-03-08T00:53:37;9.50;99.90
47813;DHT22;34221;45.296;9.516;2024-03-08T00:53:52;9.50;99.90
47813;DHT22;34221;45.296;9.516;2024-03-08T00:54:07;9.50;99.90
47813;DHT22;34221;45.296;9.516;2024-03-08T00:54:21;9.50;99.90
47813;DHT22;34221;45.296;9.516;2024-03-08T00:54:37;9.50;99.90
47813;DHT22;34221;45.296;9.516;2024-03-08T00:54:51;9.50;99.90
47813;DHT22;34221;45.296;9.516;2024-03-08T00:55:06;9.50;99.90
47813;DHT22;34221;45.296;9.516;2024-03-08T00:55:25;9.50;99.90
47813;DHT22;34221;45.296;9.516;2024-03-08T00:55:39;9.50;99.90
47813;DHT22;34221;45.296;9.516;2024-03-08T00:55:54;9.50;99.90
47813;DHT22;34221;45.296;9.516;2024-03-08T00:56:09;9.50;99.90
47813;DHT22;34221;45.296;9.516;2024-03-08T00:56:27;9.50;99.90
47813;DHT22;34221;45.296;9.516;2024-03-08T00:56:42;9.60;99.90
47813;DHT22;34221;45.296;9.516;2024-03-08T00:56:57;9.50;99.90
47813;DHT22;34221;45.296;9.516;2024-03-08T00:57:11;9.50;99.80
47813;DHT22;34221;45.296;9.516;2024-03-08T00:57:26;9.50;99.70
47813;DHT22;34221;45.296;9.516;2024-03-08T00:57:42;9.50;99.50
47813;DHT22;34221;45.296;9.516;2024-03-08T00:57:57;9.60;99.40
47813;DHT22;34221;45.296;9.516;2024-03-08T00:58:12;9.50;99.30
47813;DHT22;34221;45.296;9.516;2024-03-08T00:58:27;9.50;99.20
47813;DHT22;34221;45.296;9.516;2024-03-08T00:58:42;9.50;99.20
47813;DHT22;34221;45.296;9.516;2024-03-08T00:58:57;9.50;99.10
47813;DHT22;34221;45.296;9.516;2024-03-08T00:59:12;9.50;99.00
47813;DHT22;34221;45.296;9.516;2024-03-08T00:59:29;9.50;99.10
47813;DHT22;34221;45.296;9.516;2024-03-08T00:59:44;9.50;99.10
47813;DHT22;34221;45.296;9.516;2024-03-08T00:59:58;9.60;99.30
47813;DHT22;34221;45.296;9.516;2024-03-08T01:00:13;9.60;99.30
47813;DHT22;34221;45.296;9.516;2024-03-08T01:00:28;9.60;99.30
47813;DHT22;34221;45.296;9.516;2024-03-08T01:00:43;9.50;99.20
47813;DHT22;34221;45.296;9.516;2024-03-08T01:00:59;9.50;99.10
47813;DHT22;34221;45.296;9.516;2024-03-08T01:01:14;9.60;99.10
47813;DHT22;34221;45.296;9.516;2024-03-08T01:01:30;9.50;99.00
47813;DHT22;34221;45.296;9.516;2024-03-08T01:01:45;9.50;98.90
47813;DHT22;34221;45.296;9.516;2024-03-08T01:02:00;9.60;98.80
47813;DHT22;34221;45.296;9.516;2024-03-08T01:02:15;9.50;98.60
47813;DHT22;34221;45.296;9.516;2024-03-08T01:02:31;9.50;98.40
47813;DHT22;34221;45.296;9.516;2024-03-08T01:02:47;9.50;98.60
47813;DHT22;34221;45.296;9.516;2024-03-08T01:03:02;9.50;98.70
47813;DHT22;34221;45.296;9.516;2024-03-08T01:03:18;9.50;98.80
47813;DHT22;34221;45.296;9.516;2024-03-08T01:03:32;9.60;98.80
47813;DHT22;34221;45.296;9.516;2024-03-08T01:03:49;9.50;98.60
47813;DHT22;34221;45.296;9.516;2024-03-08T01:04:03;9.50;98.40
47813;DHT22;34221;45.296;9.516;2024-03-08T01:04:18;9.50;98.30
47813;DHT22;34221;45.296;9.516;2024-03-08T01:04:33;9.50;98.30
47813;DHT22;34221;45.296;9.516;2024-03-08T01:04:48;9.50;98.30
47813;DHT22;34221;45.296;9.516;2024-03-08T01:05:03;9.50;98.40
47813;DHT22;34221;45.296;9.516;2024-03-08T01:05:20;9.50;98.40
47813;DHT22;34221;45.296;9.516;2024-03-08T01:05:35;9.50;98.30
47813;DHT22;34221;45.296;9.516;2024-03-08T01:05:50;9.50;98.10
47813;DHT22;34221;45.296;9.516;2024-03-08T01:06:06;9.50;98.00
47813;DHT22;34221;45.296;9.516;2024-03-08T01:06:20;9.50;98.00
47813;DHT22;34221;45.296;9.516;2024-03-08T01:06:35;9.50;98.10
47813;DHT22;34221;45.296;9.516;2024-03-08T01:06:50;9.50;98.10
47813;DHT22;34221;45.296;9.516;2024-03-08T01:07:05;9.50;98.20
47813;DHT22;34221;45.296;9.516;2024-03-08T01:07:20;9.50;98.40
47813;DHT22;34221;45.296;9.516;2024-03-08T01:07:35;9.50;98.50
47813;DHT22;34221;45.296;9.516;2024-03-08T01:07:50;9.50;98.60
47813;DHT22;34221;45.296;9.516;2024-03-08T01:08:05;9.50;98.50
47813;DHT22;34221;45.296;9.516;2024-03-08T01:08:20;9.60;98.40
47813;DHT22;34221;45.296;9.516;2024-03-08T01:08:35;9.50;98.30
47813;DHT22;34221;45.296;9.516;2024-03-08T01:08:52;9.60;98.20
47813;DHT22;34221;45.296;9.516;2024-03-08T01:09:08;9.50;98.20
47813;DHT22;34221;45.296;9.516;2024-03-08T01:09:24;9.60;98.50
47813;DHT22;34221;45.296;9.516;2024-03-08T01:09:39;9.50;98.20
47813;DHT22;34221;45.296;9.516;2024-03-08T01:09:54;9.50;98.10
47813;DHT22;34221;45.296;9.516;2024-03-08T01:10:09;9.50;97.90
47813;DHT22;34221;45.296;9.516;2024-03-08T01:10:24;9.50;98.00
47813;DHT22;34221;45.296;9.516;2024-03-08T01:10:39;9.50;98.10
47813;DHT22;34221;45.296;9.516;2024-03-08T01:10:54;9.50;98.10
47813;DHT22;34221;45.296;9.516;2024-03-08T01:11:08;9.50;98.20
47813;DHT22;34221;45.296;9.516;2024-03-08T01:11:23;9.50;98.30
47813;DHT22;34221;45.296;9.516;2024-03-08T01:11:38;9.50;98.20
47813;DHT22;34221;45.296;9.516;2024-03-08T01:11:54;9.50;98.10
47813;DHT22;34221;45.296;9.516;2024-03-08T01:12:09;9.50;98.10
47813;DHT22;34221;45.296;9.516;2024-03-08T01:12:25;9.50;98.10
47813;DHT22;34221;45.296;9.516;2024-03-08T01:12:39;9.50;98.30
47813;DHT22;34221;45.296;9.516;2024-03-08T01:12:54;9.50;98.30
47813;DHT22;34221;45.296;9.516;2024-03-08T01:13:11;9.50;98.30
47813;DHT22;34221;45.296;9.516;2024-03-08T01:13:26;9.50;98.30
47813;DHT22;34221;45.296;9.516;2024-03-08T01:13:41;9.50;98.30
47813;DHT22;34221;45.296;9.516;2024-03-08T01:13:55;9.50;98.30
47813;DHT22;34221;45.296;9.516;2024-03-08T01:14:10;9.50;98.30
47813;DHT22;34221;45.296;9.516;2024-03-08T01:14:25;9.50;98.30
47813;DHT22;34221;45.296;9.516;2024-03-08T01:14:46;9.50;98.40
47813;DHT22;34221;45.296;9.516;2024-03-08T01:15:00;9.50;98.50
47813;DHT22;34221;45.296;9.516;2024-03-08T01:15:15;9.50;98.60
47813;DHT22;34221;45.296;9.516;2024-03-08T01:15:30;9.50;98.60
47813;DHT22;34221;45.296;9.516;2024-03-08T01:15:45;9.60;98.70
47813;DHT22;34221;45.296;9.516;2024-03-08T01:16:00;9.60;98.70
47813;DHT22;34221;45.296;9.516;2024-03-08T01:16:15;9.50;98.50
47813;DHT22;34221;45.296;9.516;2024-03-08T01:16:31;9.50;98.30
47813;DHT22;34221;45.296;9.516;2024-03-08T01:16:48;9.50;98.30
47813;DHT22;34221;45.296;9.516;2024-03-08T01:17:03;9.50;98.40
47813;DHT22;34221;45.296;9.516;2024-03-08T01:17:18;9.60;98.50
47813;DHT22;34221;45.296;9.516;2024-03-08T01:17:33;9.60;98.80
47813;DHT22;34221;45.296;9.516;2024-03-08T01:17:47;9.50;98.70
47813;DHT22;34221;45.296;9.516;2024-03-08T01:18:02;9.50;98.70
47813;DHT22;34221;45.296;9.516;2024-03-08T01:18:17;9.50;98.70
47813;DHT22;34221;45.296;9.516;2024-03-08T01:18:32;9.50;98.70
47813;DHT22;34221;45.296;9.516;2024-03-08T01:18:47;9.60;98.70
47813;DHT22;34221;45.296;9.516;2024-03-08T01:19:01;9.60;98.60
47813;DHT22;34221;45.296;9.516;2024-03-08T01:19:17;9.50;98.50
47813;DHT22;34221;45.296;9.516;2024-03-08T01:19:32;9.60;98.50
47813;DHT22;34221;45.296;9.516;2024-03-08T01:19:47;9.60;98.40
47813;DHT22;34221;45.296;9.516;2024-03-08T01:20:03;9.50;98.30
47813;DHT22;34221;45.296;9.516;2024-03-08T01:20:18;9.60;98.40
47813;DHT22;34221;45.296;9.516;2024-03-08T01:20:33;9.60;98.60
47813;DHT22;34221;45.296;9.516;2024-03-08T01:20:48;9.50;98.60
47813;DHT22;34221;45.296;9.516;2024-03-08T01:21:03;9.60;98.60
47813;DHT22;34221;45.296;9.516;2024-03-08T01:21:18;9.60;98.60
47813;DHT22;34221;45.296;9.516;2024-03-08T01:21:32;9.50;98.50
47813;DHT22;34221;45.296;9.516;2024-03-08T01:21:47;9.60;98.40
47813;DHT22;34221;45.296;9.516;2024-03-08T01:22:02;9.60;98.40
47813;DHT22;34221;45.296;9.516;2024-03-08T01:22:18;9.60;98.40
47813;DHT22;34221;45.296;9.516;2024-03-08T01:22:32;9.60;98.40
47813;DHT22;34221;45.296;9.516;2024-03-08T01:22:47;9.60;98.50
47813;DHT22;34221;45.296;9.516;2024-03-08T01:23:02;9.60;98.50
47813;DHT22;34221;45.296;9.516;2024-03-08T01:23:18;9.60;98.60
47813;DHT22;34221;45.296;9.516;2024-03-08T01:23:32;9.60;98.60
47813;DHT22;34221;45.296;9.516;2024-03-08T01:23:49;9.60;98.60
47813;DHT22;34221;45.296;9.516;2024-03-08T01:24:04;9.60;98.60
47813;DHT22;34221;45.296;9.516;2024-03-08T01:24:19;9.50;98.50
47813;DHT22;34221;45.296;9.516;2024-03-08T01:24:34;9.60;98.50
47813;DHT22;34221;45.296;9.516;2024-03-08T01:24:49;9.50;98.40
47813;DHT22;34221;45.296;9.516;2024-03-08T01:25:04;9.60;98.40
47813;DHT22;34221;45.296;9.516;2024-03-08T01:25:19;9.50;98.40
47813;DHT22;34221;45.296;9.516;2024-03-08T01:25:34;9.60;98.60
47813;DHT22;34221;45.296;9.516;2024-03-08T01:25:49;9.60;98.70
47813;DHT22;34221;45.296;9.516;2024-03-08T01:26:11;9.60;98.80
47813;DHT22;34221;45.296;9.516;2024-03-08T01:26:26;9.60;98.70
47813;DHT22;34221;45.296;9.516;2024-03-08T01:26:40;9.60;98.70
47813;DHT22;34221;45.296;9.516;2024-03-08T01:26:55;9.60;98.80
47813;DHT22;34221;45.296;9.516;2024-03-08T01:27:10;9.60;98.80
47813;DHT22;34221;45.296;9.516;2024-03-08T01:27:24;9.60;99.00
47813;DHT22;34221;45.296;9.516;2024-03-08T01:27:39;9.60;99.00
47813;DHT22;34221;45.296;9.516;2024-03-08T01:27:54;9.60;99.00
47813;DHT22;34221;45.296;9.516;2024-03-08T01:28:09;9.60;98.90
47813;DHT22;34221;45.296;9.516;2024-03-08T01:28:24;9.60;98.80
47813;DHT22;34221;45.296;9.516;2024-03-08T01:28:39;9.60;98.80
47813;DHT22;34221;45.296;9.516;2024-03-08T01:28:54;9.50;99.00
47813;DHT22;34221;45.296;9.516;2024-03-08T01:29:08;9.60;98.90
47813;DHT22;34221;45.296;9.516;2024-03-08T01:29:23;9.50;98.80
47813;DHT22;34221;45.296;9.516;2024-03-08T01:29:38;9.50;98.80
47813;DHT22;34221;45.296;9.516;2024-03-08T01:29:52;9.50;99.00
47813;DHT22;34221;45.296;9.516;2024-03-08T01:30:07;9.50;99.00
47813;DHT22;34221;45.296;9.516;2024-03-08T01:30:24;9.50;99.20
47813;DHT22;34221;45.296;9.516;2024-03-08T01:30:38;9.60;99.40
47813;DHT22;34221;45.296;9.516;2024-03-08T01:30:53;9.60;99.40
47813;DHT22;34221;45.296;9.516;2024-03-08T01:31:10;9.60;99.30
47813;DHT22;34221;45.296;9.516;2024-03-08T01:31:24;9.50;99.20
47813;DHT22;34221;45.296;9.516;2024-03-08T01:31:39;9.60;99.50
47813;DHT22;34221;45.296;9.516;2024-03-08T01:31:54;9.60;99.50
47813;DHT22;34221;45.296;9.516;2024-03-08T01:32:09;9.60;99.40
47813;DHT22;34221;45.296;9.516;2024-03-08T01:32:23;9.60;99.40
47813;DHT22;34221;45.296;9.516;2024-03-08T01:32:38;9.60;99.50
47813;DHT22;34221;45.296;9.516;2024-03-08T01:32:53;9.60;99.50
47813;DHT22;34221;45.296;9.516;2024-03-08T01:33:08;9.60;99.60
47813;DHT22;34221;45.296;9.516;2024-03-08T01:33:24;9.60;99.70
47813;DHT22;34221;45.296;9.516;2024-03-08T01:33:40;9.60;99.70
47813;DHT22;34221;45.296;9.516;2024-03-08T01:33:54;9.60;99.70
47813;DHT22;34221;45.296;9.516;2024-03-08T01:34:10;9.60;99.70
47813;DHT22;34221;45.296;9.516;2024-03-08T01:34:25;9.60;99.80
47813;DHT22;34221;45.296;9.516;2024-03-08T01:34:40;9.60;99.90
47813;DHT22;34221;45.296;9.516;2024-03-08T01:34:55;9.60;99.90
47813;DHT22;34221;45.296;9.516;2024-03-08T01:35:10;9.60;99.90
47813;DHT22;34221;45.296;9.516;2024-03-08T01:35:25;9.60;99.90
47813;DHT22;34221;45.296;9.516;2024-03-08T01:35:41;9.60;99.90
47813;DHT22;34221;45.296;9.516;2024-03-08T01:35:56;9.60;99.90
47813;DHT22;34221;45.296;9.516;2024-03-08T01:36:11;9.60;99.90
47813;DHT22;34221;45.296;9.516;2024-03-08T01:36:29;9.60;99.90
47813;DHT22;34221;45.296;9.516;2024-03-08T01:36:44;9.60;99.90
47813;DHT22;34221;45.296;9.516;2024-03-08T01:36:59;9.60;99.90
47813;DHT22;34221;45.296;9.516;2024-03-08T01:37:15;9.60;99.90
47813;DHT22;34221;45.296;9.516;2024-03-08T01:37:30;9.60;99.90